Главная страница
METAR-TAF:

METAR-TAF

Аэропорты :

Актобе, Казахстан

широта: 50-17N, долгота: 057-09E, высота над уровнем моря: 227 м

Текущие метеонаблюдения

Эта сводка был подготовлена 22 минут назад, в 06:00 UTC
Ветер 12 Узел от юго-юго-восточный, изменяющийся между юго-восточный и южный
Температура 30°C
Влажность 13%
Давление 1026 hPa
Видимость: 9000 м

METAR: UATT 230600Z 16006MPS 130V190 9000 NSC 30/M01 Q1026 R13/70D TEMPO 5000 FU RMK QFE749/0999

Время: 11:22 (06:22 UTC)

Прогноз

Эта сводка был подготовлена 1 час и 22 минут назад, в 05:00 UTC
Прогноз действительный с 23-го 06 UTC до 24-го 06 UTC
Ветер 16 Узел от восточно-юго-восточный
Видимость 10 км и более
Отдельные облака на высоте 5000 фута
С 23-го 1800 UTC
Ветер 10 Узел от восточно-юго-восточный
Видимость: 5000 м
дым

TAF: UATT 230500Z 2306/2406 11008MPS 9999 SCT050 TX33/2312Z TN15/2401Z FM231800 12005MPS 5000 FU NSC

Метеонаблюдения и прогнозы для более 4000 аэропортов (сводки METAR и TAF).

Имеющиеся станции представлены на карте желтыми и красными точками.

Чтобы увидеть название станции, наведите на нее мышь.

Затем щелкните, чтобы увидеть метеонаблюдения и метеопрогнозы.

Управление картой: чтобы увеличить масштаб, щелкните зеленые кнопки с черным крестиком; чтобы уменьшить масштаб, щелкните зеленую кнопку с тире; для просмотра соседних карт щелкайте зеленые стрелки.


METAR-TAF: